sensor_id;sensor_type;location;lat;lon;timestamp;P1;durP1;ratioP1;P2;durP2;ratioP2
25980;SDS011;13772;52.996;9.124;2022-07-23T18:52:25;4.85;;;1.00;;
25980;SDS011;13772;52.996;9.124;2022-07-23T18:54:50;5.55;;;1.05;;
25980;SDS011;13772;52.996;9.124;2022-07-23T18:57:15;3.97;;;0.82;;
25980;SDS011;13772;52.996;9.124;2022-07-23T18:59:41;2.22;;;0.90;;
25980;SDS011;13772;52.996;9.124;2022-07-23T19:02:06;4.30;;;0.90;;
25980;SDS011;13772;52.996;9.124;2022-07-23T19:04:31;4.50;;;1.00;;
25980;SDS011;13772;52.996;9.124;2022-07-23T19:06:57;2.88;;;0.73;;
25980;SDS011;13772;52.996;9.124;2022-07-23T19:09:22;5.28;;;0.80;;
25980;SDS011;13772;52.996;9.124;2022-07-23T19:11:47;3.45;;;1.00;;
25980;SDS011;13772;52.996;9.124;2022-07-23T19:14:12;3.08;;;1.00;;
25980;SDS011;13772;52.996;9.124;2022-07-23T19:16:38;4.47;;;1.08;;
25980;SDS011;13772;52.996;9.124;2022-07-23T19:19:03;5.80;;;1.10;;
25980;SDS011;13772;52.996;9.124;2022-07-23T19:21:28;4.63;;;1.55;;
25980;SDS011;13772;52.996;9.124;2022-07-23T19:23:53;4.93;;;1.20;;
25980;SDS011;13772;52.996;9.124;2022-07-23T19:26:19;2.45;;;1.00;;
25980;SDS011;13772;52.996;9.124;2022-07-23T19:28:44;3.53;;;1.33;;
25980;SDS011;13772;52.996;9.124;2022-07-23T19:31:11;6.47;;;1.25;;
25980;SDS011;13772;52.996;9.124;2022-07-23T19:33:36;4.22;;;1.40;;
25980;SDS011;13772;52.996;9.124;2022-07-23T19:36:02;3.33;;;1.35;;
25980;SDS011;13772;52.996;9.124;2022-07-23T19:38:27;2.50;;;1.17;;
25980;SDS011;13772;52.996;9.124;2022-07-23T19:40:52;2.72;;;1.15;;
25980;SDS011;13772;52.996;9.124;2022-07-23T19:43:17;4.10;;;1.00;;
25980;SDS011;13772;52.996;9.124;2022-07-23T19:45:43;8.35;;;1.83;;
25980;SDS011;13772;52.996;9.124;2022-07-23T19:48:08;3.13;;;1.10;;
25980;SDS011;13772;52.996;9.124;2022-07-23T19:50:33;2.58;;;1.00;;
25980;SDS011;13772;52.996;9.124;2022-07-23T19:52:58;2.95;;;1.20;;
25980;SDS011;13772;52.996;9.124;2022-07-23T19:55:24;4.25;;;1.40;;
25980;SDS011;13772;52.996;9.124;2022-07-23T19:57:49;3.22;;;1.63;;
25980;SDS011;13772;52.996;9.124;2022-07-23T20:00:14;5.97;;;1.60;;
25980;SDS011;13772;52.996;9.124;2022-07-23T20:02:42;4.45;;;1.45;;
25980;SDS011;13772;52.996;9.124;2022-07-23T20:05:08;3.42;;;1.02;;
25980;SDS011;13772;52.996;9.124;2022-07-23T20:07:33;3.45;;;1.20;;
25980;SDS011;13772;52.996;9.124;2022-07-23T20:09:59;4.45;;;1.38;;
25980;SDS011;13772;52.996;9.124;2022-07-23T20:12:24;7.10;;;1.65;;
25980;SDS011;13772;52.996;9.124;2022-07-23T20:14:49;4.78;;;1.40;;
25980;SDS011;13772;52.996;9.124;2022-07-23T20:17:15;5.25;;;1.67;;
25980;SDS011;13772;52.996;9.124;2022-07-23T20:19:40;5.93;;;1.45;;
25980;SDS011;13772;52.996;9.124;2022-07-23T20:22:05;3.38;;;1.50;;
25980;SDS011;13772;52.996;9.124;2022-07-23T20:24:30;4.22;;;1.33;;
25980;SDS011;13772;52.996;9.124;2022-07-23T20:26:55;4.65;;;1.77;;
25980;SDS011;13772;52.996;9.124;2022-07-23T20:29:21;4.45;;;1.60;;
25980;SDS011;13772;52.996;9.124;2022-07-23T20:31:47;4.63;;;1.48;;
25980;SDS011;13772;52.996;9.124;2022-07-23T20:36:59;4.88;;;1.65;;
25980;SDS011;13772;52.996;9.124;2022-07-23T20:39:24;2.63;;;1.40;;
25980;SDS011;13772;52.996;9.124;2022-07-23T20:41:49;4.05;;;1.38;;
25980;SDS011;13772;52.996;9.124;2022-07-23T20:44:15;3.78;;;1.30;;
25980;SDS011;13772;52.996;9.124;2022-07-23T20:46:40;4.15;;;1.20;;
25980;SDS011;13772;52.996;9.124;2022-07-23T20:49:06;3.42;;;1.30;;
25980;SDS011;13772;52.996;9.124;2022-07-23T20:51:31;4.60;;;1.20;;
25980;SDS011;13772;52.996;9.124;2022-07-23T20:53:57;3.33;;;1.02;;
25980;SDS011;13772;52.996;9.124;2022-07-23T20:56:22;2.53;;;1.25;;
25980;SDS011;13772;52.996;9.124;2022-07-23T20:58:48;2.72;;;1.50;;
25980;SDS011;13772;52.996;9.124;2022-07-23T21:01:13;3.13;;;1.20;;
25980;SDS011;13772;52.996;9.124;2022-07-23T21:03:38;4.28;;;1.70;;
25980;SDS011;13772;52.996;9.124;2022-07-23T21:06:03;4.43;;;1.40;;
25980;SDS011;13772;52.996;9.124;2022-07-23T21:08:28;3.60;;;1.38;;
25980;SDS011;13772;52.996;9.124;2022-07-23T21:10:54;3.28;;;1.35;;
25980;SDS011;13772;52.996;9.124;2022-07-23T21:13:19;4.13;;;1.35;;
25980;SDS011;13772;52.996;9.124;2022-07-23T21:15:44;2.30;;;1.30;;
25980;SDS011;13772;52.996;9.124;2022-07-23T21:18:09;2.33;;;1.30;;
25980;SDS011;13772;52.996;9.124;2022-07-23T21:20:35;3.55;;;1.48;;
25980;SDS011;13772;52.996;9.124;2022-07-23T21:23:18;3.13;;;1.60;;
25980;SDS011;13772;52.996;9.124;2022-07-23T21:25:44;3.75;;;1.70;;
25980;SDS011;13772;52.996;9.124;2022-07-23T21:28:09;4.22;;;1.95;;
25980;SDS011;13772;52.996;9.124;2022-07-23T21:30:34;3.75;;;2.00;;
25980;SDS011;13772;52.996;9.124;2022-07-23T21:32:59;20.80;;;2.60;;
